Time;durP1;ratioP1;P1;durP2;ratioP2;P2;SDS_P1;SDS_P2;PMS_P1;PMS_P2;Temp;Humidity;BMP_temperature;BMP_pressure;BME280_temperature;BME280_humidity;BME280_pressure;Samples;Min_cycle;Max_cycle;Signal;HPM_P1;HPM_P2
2021/03/11 00:00:48;;;;;;;;;;;;;;;-2.29;53.93;101134.32;1698487;80;20464;-61
2021/03/11 00:03:22;;;;;;;;;;;;;;;-2.28;54.07;101135.17;1763221;80;20305;-62
2021/03/11 00:05:49;;;;;;;;;;;;;;;-2.20;53.90;101132.79;1654939;86;20621;-62
2021/03/11 00:08:17;;;;;;;;;;;;;;;-2.17;53.68;101131.73;1615395;87;20303;-61
2021/03/11 00:10:45;;;;;;;;;;;;;;;-2.18;53.70;101130.91;1642960;87;21357;-62
2021/03/11 00:13:13;;;;;;;;;;;;;;;-2.15;53.56;101136.38;1632709;86;20269;-62
2021/03/11 00:15:42;;;;;;;;;;;;;;;-2.15;53.53;101131.98;1644467;86;20299;-61
2021/03/11 00:18:11;;;;;;;;;;;;;;;-2.12;53.43;101133.05;1642240;86;20276;-61
2021/03/11 00:20:40;;;;;;;;;;;;;;;-2.17;53.39;101135.67;1642454;87;20303;-62
2021/03/11 00:23:07;;;;;;;;;;;;;;;-2.15;53.46;101133.75;1655813;82;22180;-62
2021/03/11 00:25:36;;;;;;;;;;;;;;;-2.12;53.37;101135.69;1709413;82;20272;-62
2021/03/11 00:28:07;;;;;;;;;;;;;;;-2.10;53.25;101140.82;1728142;81;20280;-61
2021/03/11 00:30:35;;;;;;;;;;;;;;;-2.12;53.39;101134.83;1734914;80;20992;-63
2021/03/11 00:33:04;;;;;;;;;;;;;;;-2.07;53.38;101140.59;1742897;81;20503;-63
2021/03/11 00:35:32;;;;;;;;;;;;;;;-1.98;53.54;101126.73;1733052;81;21228;-62
2021/03/11 00:38:02;;;;;;;;;;;;;;;-1.85;53.13;101127.95;1733824;80;20288;-63
2021/03/11 00:40:32;;;;;;;;;;;;;;;-1.82;52.99;101131.65;1741562;80;20499;-62
2021/03/11 00:43:00;;;;;;;;;;;;;;;-1.81;52.78;101131.16;1734554;81;20559;-63
2021/03/11 00:45:28;;;;;;;;;;;;;;;-1.79;53.00;101133.21;1728493;82;20296;-62
2021/03/11 00:47:56;;;;;;;;;;;;;;;-1.74;52.66;101131.05;1727964;82;22046;-61
2021/03/11 00:50:24;;;;;;;;;;;;;;;-1.77;52.71;101127.34;1727223;82;20154;-63
2021/03/11 00:52:52;;;;;;;;;;;;;;;-1.78;52.57;101126.52;1732962;81;20500;-62
2021/03/11 00:55:21;;;;;;;;;;;;;;;-1.90;52.55;101124.81;1744781;81;20154;-62
2021/03/11 00:57:50;;;;;;;;;;;;;;;-1.96;53.06;101127.47;1730001;82;20280;-61
2021/03/11 01:00:21;;;;;;;;;;;;;;;-1.95;52.93;101125.17;1728819;82;21373;-62
2021/03/11 01:02:57;;;;;;;;;;;;;;;-1.97;53.01;101122.33;1728879;82;20953;-61
2021/03/11 01:05:29;;;;;;;;;;;;;;;-2.03;52.99;101118.37;1731961;82;20495;-62
2021/03/11 01:07:58;;;;;;;;;;;;;;;-2.17;53.30;101114.65;1726920;80;20287;-61
2021/03/11 01:10:26;;;;;;;;;;;;;;;-2.19;53.60;101109.52;1721552;82;20245;-62
2021/03/11 01:12:54;;;;;;;;;;;;;;;-2.13;53.73;101113.47;1720821;82;21294;-63
2021/03/11 01:15:21;;;;;;;;;;;;;;;-2.03;53.62;101113.58;1719585;82;20297;-62
2021/03/11 01:17:49;;;;;;;;;;;;;;;-1.96;53.58;101109.07;1722992;82;20207;-61
2021/03/11 01:20:19;;;;;;;;;;;;;;;-1.89;53.37;101108.59;1734156;82;20149;-62
2021/03/11 01:22:46;;;;;;;;;;;;;;;-1.91;53.10;101109.17;1735337;82;20260;-62
2021/03/11 01:25:14;;;;;;;;;;;;;;;-2.02;53.28;101106.89;1737647;82;21209;-62
2021/03/11 01:27:43;;;;;;;;;;;;;;;-2.09;53.30;101110.97;1735612;82;20133;-61
2021/03/11 01:30:13;;;;;;;;;;;;;;;-2.15;53.45;101108.33;1732489;82;20249;-62
2021/03/11 01:32:41;;;;;;;;;;;;;;;-2.18;53.38;101108.56;1731301;80;20547;-61
2021/03/11 01:35:10;;;;;;;;;;;;;;;-2.29;53.54;101104.59;1714012;82;20600;-62
2021/03/11 01:37:37;;;;;;;;;;;;;;;-2.38;53.50;101105.30;1735795;82;22151;-61
2021/03/11 01:40:06;;;;;;;;;;;;;;;-2.43;54.14;101108.25;1737466;81;20233;-61
2021/03/11 01:42:34;;;;;;;;;;;;;;;-2.33;54.34;101111.86;1735273;82;20274;-62
2021/03/11 01:45:06;;;;;;;;;;;;;;;-2.21;54.06;101112.75;1737483;81;20244;-61
2021/03/11 01:47:34;;;;;;;;;;;;;;;-2.13;53.75;101100.33;1732705;82;20169;-61
2021/03/11 01:50:04;;;;;;;;;;;;;;;-2.06;53.26;101105.48;1733897;82;21390;-65
2021/03/11 01:52:33;;;;;;;;;;;;;;;-2.10;53.04;101105.84;1735610;82;20335;-67
2021/03/11 01:55:01;;;;;;;;;;;;;;;-2.13;53.31;101104.27;1730427;82;20133;-65
2021/03/11 01:57:29;;;;;;;;;;;;;;;-2.14;53.15;101102.10;1713680;82;20204;-66
2021/03/11 01:59:57;;;;;;;;;;;;;;;-2.16;53.29;101109.28;1713929;82;20261;-67
2021/03/11 02:02:25;;;;;;;;;;;;;;;-2.12;53.26;101101.98;1708666;82;21227;-67
2021/03/11 02:04:53;;;;;;;;;;;;;;;-2.04;53.03;101102.24;1735645;82;20202;-67
2021/03/11 02:07:23;;;;;;;;;;;;;;;-2.02;52.65;101103.44;1732439;80;20222;-67
2021/03/11 02:09:51;;;;;;;;;;;;;;;-2.05;52.57;101106.30;1750420;80;20254;-67
2021/03/11 02:12:34;;;;;;;;;;;;;;;-2.07;52.92;101108.22;1782209;80;20262;-68
2021/03/11 02:15:06;;;;;;;;;;;;;;;-2.00;52.81;101106.80;1743903;80;21291;-67
2021/03/11 02:17:40;;;;;;;;;;;;;;;-1.91;52.42;101114.42;1763441;80;20312;-67
2021/03/11 02:20:12;;;;;;;;;;;;;;;-1.96;52.50;101113.02;1775903;80;20202;-61
2021/03/11 02:22:49;;;;;;;;;;;;;;;-1.98;52.45;101119.34;1774816;80;20317;-65
2021/03/11 02:25:27;;;;;;;;;;;;;;;-2.01;52.39;101118.26;1775328;80;20515;-63
2021/03/11 02:28:21;;;;;;;;;;;;;;;-2.10;52.54;101118.97;1762533;80;21225;-64
2021/03/11 02:30:49;;;;;;;;;;;;;;;-2.15;52.82;101121.92;1730042;82;20977;-63
2021/03/11 02:33:17;;;;;;;;;;;;;;;-2.16;52.68;101121.10;1761300;80;20182;-63
2021/03/11 02:35:45;;;;;;;;;;;;;;;-2.28;52.99;101120.73;1768101;80;20245;-63
2021/03/11 02:38:12;;;;;;;;;;;;;;;-2.30;53.16;101123.47;1737067;81;20233;-65
2021/03/11 02:40:41;;;;;;;;;;;;;;;-2.31;53.04;101127.05;1758372;81;21261;-64
2021/03/11 02:43:11;;;;;;;;;;;;;;;-2.46;53.26;101128.18;1758656;81;20190;-64
2021/03/11 02:45:38;;;;;;;;;;;;;;;-2.59;53.59;101130.91;1758786;81;20581;-64
2021/03/11 02:48:07;;;;;;;;;;;;;;;-2.65;53.88;101126.08;1732678;81;20233;-63
2021/03/11 02:50:36;;;;;;;;;;;;;;;-2.70;54.12;101138.23;1740400;81;20254;-63
2021/03/11 02:53:08;;;;;;;;;;;;;;;-2.70;54.20;101136.93;1758584;81;21208;-64
2021/03/11 02:55:37;;;;;;;;;;;;;;;-2.67;54.26;101138.50;1758708;81;20130;-64
2021/03/11 02:58:09;;;;;;;;;;;;;;;-2.68;54.25;101132.88;1636786;86;20330;-63
2021/03/11 03:00:46;;;;;;;;;;;;;;;-2.74;54.54;101130.70;1828151;77;20295;-63
2021/03/11 03:03:14;;;;;;;;;;;;;;;-2.92;54.76;101132.90;1819099;79;20133;-63
2021/03/11 03:05:42;;;;;;;;;;;;;;;-2.97;54.99;101134.55;1797975;79;21992;-63
2021/03/11 03:08:09;;;;;;;;;;;;;;;-2.95;55.21;101137.89;1819125;79;20204;-64
2021/03/11 03:10:37;;;;;;;;;;;;;;;-2.90;55.14;101135.78;1818927;79;20180;-63
2021/03/11 03:13:12;;;;;;;;;;;;;;;-2.96;55.18;101132.75;1818930;79;20157;-64
2021/03/11 03:15:48;;;;;;;;;;;;;;;-2.96;55.42;101137.52;1818276;77;20190;-64
2021/03/11 03:18:17;;;;;;;;;;;;;;;-2.99;55.54;101139.05;1794861;79;20230;-65
2021/03/11 03:20:46;;;;;;;;;;;;;;;-3.01;55.56;101140.96;1802466;79;21203;-62
2021/03/11 03:23:14;;;;;;;;;;;;;;;-3.03;55.62;101142.39;1804728;79;20151;-63
2021/03/11 03:25:48;;;;;;;;;;;;;;;-3.08;55.75;101149.73;1799752;79;20758;-64
2021/03/11 03:28:16;;;;;;;;;;;;;;;-3.17;55.87;101147.30;1798927;79;20145;-63
2021/03/11 03:30:44;;;;;;;;;;;;;;;-3.18;56.20;101153.52;1800923;79;20218;-65
2021/03/11 03:33:12;;;;;;;;;;;;;;;-3.19;56.25;101145.75;1780058;79;21385;-64
2021/03/11 03:35:40;;;;;;;;;;;;;;;-3.17;56.38;101144.67;1802423;79;20171;-65
2021/03/11 03:38:08;;;;;;;;;;;;;;;-3.01;56.26;101148.34;1802577;79;20147;-63
2021/03/11 03:40:36;;;;;;;;;;;;;;;-2.87;56.05;101146.05;1799633;79;20214;-64
2021/03/11 03:43:08;;;;;;;;;;;;;;;-2.75;55.89;101149.56;1782714;79;20320;-63
2021/03/11 03:45:41;;;;;;;;;;;;;;;-2.60;55.71;101148.09;1801142;79;21382;-65
2021/03/11 03:48:12;;;;;;;;;;;;;;;-2.58;55.19;101141.75;1804080;79;20186;-64
2021/03/11 03:50:46;;;;;;;;;;;;;;;-2.65;55.31;101146.63;1802004;79;20147;-62
2021/03/11 03:53:20;;;;;;;;;;;;;;;-2.62;55.31;101146.03;1738111;81;20362;-64
2021/03/11 03:55:58;;;;;;;;;;;;;;;-2.55;55.34;101143.31;1827880;77;20204;-63
2021/03/11 03:58:26;;;;;;;;;;;;;;;-2.80;55.42;101153.47;1792277;79;20143;-64
2021/03/11 04:00:56;;;;;;;;;;;;;;;-2.88;55.77;101152.24;1769331;80;21387;-63
2021/03/11 04:03:24;;;;;;;;;;;;;;;-2.90;55.85;101149.36;1781507;80;20131;-63
2021/03/11 04:05:54;;;;;;;;;;;;;;;-2.89;56.01;101154.49;1780872;80;20115;-64
2021/03/11 04:08:23;;;;;;;;;;;;;;;-2.89;56.11;101156.30;1778873;80;20226;-65
2021/03/11 04:10:51;;;;;;;;;;;;;;;-3.00;56.23;101150.52;1781122;80;20136;-64
2021/03/11 04:13:19;;;;;;;;;;;;;;;-3.06;56.59;101157.05;1782207;80;21201;-64
2021/03/11 04:15:48;;;;;;;;;;;;;;;-2.95;56.65;101157.57;1749833;80;20148;-64
2021/03/11 04:18:16;;;;;;;;;;;;;;;-2.82;56.50;101157.04;1779973;80;20186;-64
2021/03/11 04:20:45;;;;;;;;;;;;;;;-2.74;56.25;101156.50;1751357;80;20214;-66
2021/03/11 04:23:13;;;;;;;;;;;;;;;-2.87;56.33;101153.92;1777481;80;20289;-66
2021/03/11 04:25:41;;;;;;;;;;;;;;;-2.85;56.53;101159.89;1777394;80;21209;-65
2021/03/11 04:28:09;;;;;;;;;;;;;;;-2.70;56.47;101158.42;1780619;80;20174;-66
2021/03/11 04:30:37;;;;;;;;;;;;;;;-2.63;56.34;101161.44;1749843;80;20258;-66
2021/03/11 04:33:05;;;;;;;;;;;;;;;-2.72;56.29;101163.78;1741812;80;20477;-64
2021/03/11 04:35:33;;;;;;;;;;;;;;;-2.78;56.52;101166.86;1775280;80;20364;-63
2021/03/11 04:38:03;;;;;;;;;;;;;;;-2.70;56.66;101164.98;1781700;80;21367;-64
2021/03/11 04:40:32;;;;;;;;;;;;;;;-2.51;56.51;101162.66;1780327;80;20132;-64
2021/03/11 04:43:00;;;;;;;;;;;;;;;-2.30;56.10;101158.94;1780092;79;20135;-66
2021/03/11 04:45:29;;;;;;;;;;;;;;;-2.26;55.75;101153.45;1774243;80;20505;-65
2021/03/11 04:47:58;;;;;;;;;;;;;;;-2.39;55.82;101153.52;1780680;80;20255;-63
2021/03/11 04:50:26;;;;;;;;;;;;;;;-2.32;56.06;101156.88;1774799;80;21318;-61
2021/03/11 04:52:53;;;;;;;;;;;;;;;-1.55;55.40;101158.55;1780427;80;20223;-63
2021/03/11 04:55:22;;;;;;;;;;;;;;;-0.59;53.65;101159.20;1751341;80;20286;-63
2021/03/11 04:57:51;;;;;;;;;;;;;;;0.27;51.47;101163.02;1785512;80;20226;-63
2021/03/11 05:00:19;;;;;;;;;;;;;;;1.05;49.29;101171.20;1780703;80;20321;-62
2021/03/11 05:02:47;;;;;;;;;;;;;;;1.87;47.52;101165.17;1787499;80;21114;-68
2021/03/11 05:05:36;;;;;;;;;;;;;;;2.63;44.95;101168.22;1786486;80;20246;-68
2021/03/11 05:08:05;;;;;;;;;;;;;;;3.13;43.88;101173.56;1787186;80;20296;-68
2021/03/11 05:10:33;;;;;;;;;;;;;;;3.87;42.71;101173.39;1786066;80;20159;-68
2021/03/11 05:13:01;;;;;;;;;;;;;;;4.60;41.00;101169.53;1786752;80;20251;-68
2021/03/11 05:15:28;;;;;;;;;;;;;;;5.23;39.44;101172.22;1757817;80;21220;-65
2021/03/11 05:17:57;;;;;;;;;;;;;;;5.83;38.68;101176.94;1785828;80;20234;-67
2021/03/11 05:20:25;;;;;;;;;;;;;;;6.64;36.83;101185.78;1785902;80;20214;-66
2021/03/11 05:22:53;;;;;;;;;;;;;;;7.30;35.97;101180.13;1781993;80;20241;-66
2021/03/11 05:25:20;;;;;;;;;;;;;;;7.91;35.02;101180.66;1784488;80;20190;-68
2021/03/11 05:27:48;;;;;;;;;;;;;;;8.53;33.89;101178.73;1781463;80;21209;-68
2021/03/11 05:30:17;;;;;;;;;;;;;;;9.23;32.76;101181.83;1784991;80;20140;-67
2021/03/11 05:32:45;;;;;;;;;;;;;;;10.02;31.56;101180.09;1785304;80;20504;-68
2021/03/11 05:35:12;;;;;;;;;;;;;;;10.64;30.26;101184.62;1782131;80;20479;-68
2021/03/11 05:37:41;;;;;;;;;;;;;;;10.93;29.54;101179.20;1783260;80;20163;-67
2021/03/11 05:40:10;;;;;;;;;;;;;;;11.05;28.67;101167.66;1779283;80;21203;-67
2021/03/11 05:42:38;;;;;;;;;;;;;;;11.12;28.50;101171.72;1776346;80;20561;-70
2021/03/11 05:45:07;;;;;;;;;;;;;;;11.19;28.53;101174.44;1782956;80;20477;-69
2021/03/11 05:47:36;;;;;;;;;;;;;;;11.34;28.13;101179.63;1756782;80;20131;-70
2021/03/11 05:50:05;;;;;;;;;;;;;;;11.52;28.23;101183.88;1785254;80;20246;-71
2021/03/11 05:52:34;;;;;;;;;;;;;;;11.75;27.58;101180.00;1785716;80;20508;-72
2021/03/11 05:55:04;;;;;;;;;;;;;;;11.86;27.01;101178.02;1697327;83;20267;-71
2021/03/11 05:57:43;;;;;;;;;;;;;;;11.92;27.01;101181.73;1827173;77;20291;-70
2021/03/11 06:00:18;;;;;;;;;;;;;;;12.04;26.41;101184.16;1795697;79;20169;-71
2021/03/11 06:02:47;;;;;;;;;;;;;;;12.32;25.65;101186.28;1785818;79;21186;-65
2021/03/11 06:05:15;;;;;;;;;;;;;;;12.13;25.41;101190.64;1790523;79;20184;-67
2021/03/11 06:07:46;;;;;;;;;;;;;;;11.57;26.12;101201.56;1785625;79;20280;-68
2021/03/11 06:10:15;;;;;;;;;;;;;;;11.58;26.48;101198.35;1786117;79;20509;-67
2021/03/11 06:12:43;;;;;;;;;;;;;;;12.07;25.63;101197.67;1788612;79;20155;-67
2021/03/11 06:15:23;;;;;;;;;;;;;;;12.49;25.64;101192.05;1790291;79;21261;-69
2021/03/11 06:17:51;;;;;;;;;;;;;;;13.11;24.36;101202.67;1792034;79;20178;-67
2021/03/11 06:20:19;;;;;;;;;;;;;;;13.27;24.37;101202.70;1788784;79;20155;-66
2021/03/11 06:22:47;;;;;;;;;;;;;;;13.69;23.93;101206.28;1786893;79;20149;-65
2021/03/11 06:25:16;;;;;;;;;;;;;;;13.97;23.64;101205.04;1772147;79;20129;-68
2021/03/11 06:27:45;;;;;;;;;;;;;;;14.46;23.06;101202.53;1786180;79;22101;-67
2021/03/11 06:30:33;;;;;;;;;;;;;;;14.86;22.43;101205.62;1788624;79;20299;-67
2021/03/11 06:33:04;;;;;;;;;;;;;;;15.09;22.36;101203.27;1791707;79;20494;-67
2021/03/11 06:35:33;;;;;;;;;;;;;;;15.40;22.19;101213.86;1770466;79;20422;-66
2021/03/11 06:38:01;;;;;;;;;;;;;;;15.57;21.51;101216.70;1785624;79;20250;-66
2021/03/11 06:40:30;;;;;;;;;;;;;;;15.32;20.88;101218.22;1789205;79;21265;-66
2021/03/11 06:43:11;;;;;;;;;;;;;;;14.92;21.27;101216.58;1786848;79;20131;-67
2021/03/11 06:45:40;;;;;;;;;;;;;;;14.69;21.33;101221.61;1785286;79;20136;-67
2021/03/11 06:48:26;;;;;;;;;;;;;;;14.62;21.62;101226.25;1787659;79;20144;-66
2021/03/11 06:50:57;;;;;;;;;;;;;;;14.62;21.16;101223.55;1789438;79;20159;-67
2021/03/11 06:53:26;;;;;;;;;;;;;;;14.02;21.57;101224.91;1790280;79;22141;-66
2021/03/11 06:55:53;;;;;;;;;;;;;;;13.66;21.91;101226.94;1784746;79;20676;-67
2021/03/11 06:58:24;;;;;;;;;;;;;;;13.02;22.65;101230.06;1772603;80;20505;-66
2021/03/11 07:01:03;;;;;;;;;;;;;;;12.56;22.55;101231.33;1780392;80;20149;-66
2021/03/11 07:03:43;;;;;;;;;;;;;;;12.34;22.80;101229.93;1778195;80;20570;-66
2021/03/11 07:06:12;;;;;;;;;;;;;;;12.34;23.01;101231.28;1782069;79;21188;-66
2021/03/11 07:08:51;;;;;;;;;;;;;;;12.52;23.06;101235.47;1738167;80;20730;-67
2021/03/11 07:11:19;;;;;;;;;;;;;;;12.74;22.76;101233.35;1779088;80;20149;-69
2021/03/11 07:13:47;;;;;;;;;;;;;;;13.04;22.30;101232.01;1699944;84;20262;-69
2021/03/11 07:16:16;;;;;;;;;;;;;;;12.80;21.97;101228.46;1700781;84;20235;-67
2021/03/11 07:18:44;;;;;;;;;;;;;;;12.06;21.76;101222.92;1698421;84;21216;-69
2021/03/11 07:21:13;;;;;;;;;;;;;;;10.49;22.31;101229.51;1700576;84;20549;-68
2021/03/11 07:23:48;;;;;;;;;;;;;;;8.49;24.59;101228.21;1700199;84;20537;-68
2021/03/11 07:26:16;;;;;;;;;;;;;;;7.09;26.21;101237.24;1701835;84;20319;-66
2021/03/11 07:28:46;;;;;;;;;;;;;;;6.49;28.03;101241.61;1694454;84;20252;-66
2021/03/11 07:31:14;;;;;;;;;;;;;;;6.20;28.32;101245.30;1696685;84;21227;-65
2021/03/11 07:33:42;;;;;;;;;;;;;;;5.86;28.20;101241.80;1692521;83;20344;-64
2021/03/11 07:36:10;;;;;;;;;;;;;;;5.43;28.58;101248.55;1698194;82;20515;-64
2021/03/11 07:38:38;;;;;;;;;;;;;;;5.04;28.70;101251.74;1746222;80;20297;-64
2021/03/11 07:41:08;;;;;;;;;;;;;;;4.59;29.48;101248.86;1774043;79;20559;-67
2021/03/11 07:43:38;;;;;;;;;;;;;;;4.39;31.14;101245.60;1775428;80;21203;-62
2021/03/11 07:46:06;;;;;;;;;;;;;;;4.27;30.23;101239.72;1780953;79;20248;-63
2021/03/11 07:48:35;;;;;;;;;;;;;;;3.86;30.24;101258.79;1775318;80;20233;-66
2021/03/11 07:51:04;;;;;;;;;;;;;;;3.40;31.35;101246.09;1777485;80;20134;-62
2021/03/11 07:53:40;;;;;;;;;;;;;;;3.24;32.79;101244.09;1824373;77;20656;-64
2021/03/11 07:56:08;;;;;;;;;;;;;;;2.93;33.39;101247.51;1811141;79;20149;-64
2021/03/11 07:58:38;;;;;;;;;;;;;;;2.78;34.29;101251.98;1818674;78;21398;-63
2021/03/11 08:01:06;;;;;;;;;;;;;;;2.96;34.21;101249.89;1809329;78;20490;-63
2021/03/11 08:03:34;;;;;;;;;;;;;;;3.15;33.50;101244.95;1805071;79;20148;-63
2021/03/11 08:06:22;;;;;;;;;;;;;;;3.25;32.63;101252.36;1735469;79;20145;-64
2021/03/11 08:08:50;;;;;;;;;;;;;;;3.26;32.64;101253.22;1805350;79;20196;-63
2021/03/11 08:11:38;;;;;;;;;;;;;;;3.20;32.21;101249.84;1775225;79;21295;-65
2021/03/11 08:14:23;;;;;;;;;;;;;;;3.01;32.31;101248.95;1804379;79;20208;-63
2021/03/11 08:16:51;;;;;;;;;;;;;;;2.88;32.54;101256.40;1805064;79;20192;-63
2021/03/11 08:19:39;;;;;;;;;;;;;;;2.95;32.14;101246.89;1805187;79;20251;-63
2021/03/11 08:22:06;;;;;;;;;;;;;;;3.02;32.12;101255.92;1799552;79;20252;-64
2021/03/11 08:24:42;;;;;;;;;;;;;;;3.02;32.20;101248.45;1800841;79;20554;-64
2021/03/11 08:27:32;;;;;;;;;;;;;;;3.18;31.83;101258.41;1801545;79;21929;-64
2021/03/11 08:30:01;;;;;;;;;;;;;;;3.23;32.26;101256.16;1804835;79;20180;-64
2021/03/11 08:32:48;;;;;;;;;;;;;;;3.36;31.76;101268.57;1803784;79;20176;-64
2021/03/11 08:35:30;;;;;;;;;;;;;;;3.21;31.76;101261.61;1792118;79;20228;-64
2021/03/11 08:38:02;;;;;;;;;;;;;;;3.09;32.71;101257.01;1803903;79;21590;-66
2021/03/11 08:40:40;;;;;;;;;;;;;;;2.91;32.73;101262.22;1804222;79;20109;-63
2021/03/11 08:43:09;;;;;;;;;;;;;;;2.71;32.82;101256.19;1804752;79;20248;-65
2021/03/11 08:45:41;;;;;;;;;;;;;;;2.61;32.50;101259.36;1774558;79;20411;-63
2021/03/11 08:48:18;;;;;;;;;;;;;;;2.54;32.58;101260.91;1804889;79;20236;-63
2021/03/11 08:50:50;;;;;;;;;;;;;;;2.42;32.83;101250.98;1797983;79;21211;-63
2021/03/11 08:53:42;;;;;;;;;;;;;;;2.34;32.31;101253.48;1800438;79;20240;-64
2021/03/11 08:56:22;;;;;;;;;;;;;;;2.26;31.93;101260.82;1810384;79;20229;-63
2021/03/11 08:58:55;;;;;;;;;;;;;;;2.21;32.65;101259.92;1811051;79;20145;-63
2021/03/11 09:01:44;;;;;;;;;;;;;;;2.26;32.46;101248.91;1811118;79;20279;-63
2021/03/11 09:04:22;;;;;;;;;;;;;;;2.22;32.32;101250.17;1810340;79;20569;-63
2021/03/11 09:06:55;;;;;;;;;;;;;;;2.16;32.89;101263.47;1797449;79;20149;-64
2021/03/11 09:09:48;;;;;;;;;;;;;;;2.16;32.00;101258.67;1810490;79;20153;-63
2021/03/11 09:12:17;;;;;;;;;;;;;;;2.18;32.59;101249.63;1808852;79;20133;-63
2021/03/11 09:14:49;;;;;;;;;;;;;;;2.18;32.33;101251.42;1809363;79;20145;-64
2021/03/11 09:17:25;;;;;;;;;;;;;;;1.84;32.32;101254.05;1810333;79;22005;-63
2021/03/11 09:20:01;;;;;;;;;;;;;;;1.65;33.10;101260.16;1808883;79;20224;-63
2021/03/11 09:22:35;;;;;;;;;;;;;;;1.68;33.18;101255.91;1809924;79;20196;-64
2021/03/11 09:25:14;;;;;;;;;;;;;;;1.75;32.52;101254.86;1810204;79;20196;-62
2021/03/11 09:27:59;;;;;;;;;;;;;;;1.72;32.80;101245.41;1810144;79;20240;-62
2021/03/11 09:30:33;;;;;;;;;;;;;;;1.71;32.83;101239.77;1808240;79;21050;-62
2021/03/11 09:33:17;;;;;;;;;;;;;;;1.89;32.85;101239.90;1809658;79;20656;-63
2021/03/11 09:35:44;;;;;;;;;;;;;;;2.05;32.20;101235.37;1809885;79;20478;-63
2021/03/11 09:38:18;;;;;;;;;;;;;;;2.04;31.99;101238.16;1780723;79;20252;-63
2021/03/11 09:40:47;;;;;;;;;;;;;;;2.01;32.17;101250.34;1809346;79;20208;-65
2021/03/11 09:43:22;;;;;;;;;;;;;;;2.01;31.79;101239.27;1806032;79;21204;-63
2021/03/11 09:46:00;;;;;;;;;;;;;;;1.77;31.97;101238.38;1779045;79;20315;-64
2021/03/11 09:48:30;;;;;;;;;;;;;;;1.52;32.92;101245.88;1806285;79;20259;-64
2021/03/11 09:51:07;;;;;;;;;;;;;;;1.51;33.49;101238.08;1808500;79;20822;-65
2021/03/11 09:53:54;;;;;;;;;;;;;;;1.70;32.87;101235.94;1802875;79;20232;-63
2021/03/11 09:56:26;;;;;;;;;;;;;;;1.78;32.76;101236.06;1799974;79;21194;-64
2021/03/11 09:59:05;;;;;;;;;;;;;;;1.77;32.82;101230.91;1827181;77;20188;-63
2021/03/11 10:05:04;;;;;;;;;;;;;;;1.56;33.50;101229.23;1801031;79;20131;-63
2021/03/11 10:11:08;;;;;;;;;;;;;;;1.62;33.13;101233.14;1800933;79;20159;-63
2021/03/11 10:17:13;;;;;;;;;;;;;;;1.47;32.97;101228.75;1801051;79;20198;-64
2021/03/11 10:23:16;;;;;;;;;;;;;;;0.91;34.58;101211.18;1802197;79;20155;-63
2021/03/11 10:26:19;;;;;;;;;;;;;;;0.93;34.76;101214.54;1833083;76;20275;-62
2021/03/11 10:28:49;;;;;;;;;;;;;;;0.93;35.03;101221.14;1836521;77;20150;-64
2021/03/11 10:31:18;;;;;;;;;;;;;;;1.03;34.26;101220.69;1839325;77;21209;-63
2021/03/11 10:33:46;;;;;;;;;;;;;;;1.04;34.59;101219.69;1839348;77;20497;-64
2021/03/11 10:36:15;;;;;;;;;;;;;;;1.03;33.56;101223.33;1835672;77;20203;-64
2021/03/11 10:38:47;;;;;;;;;;;;;;;0.91;33.91;101209.86;1840718;77;20223;-66
2021/03/11 10:41:17;;;;;;;;;;;;;;;0.88;34.28;101210.13;1832977;77;20521;-64
2021/03/11 10:43:45;;;;;;;;;;;;;;;0.83;34.53;101214.50;1841262;77;21303;-62
2021/03/11 10:46:18;;;;;;;;;;;;;;;0.86;34.32;101201.52;1839070;77;20183;-63
2021/03/11 10:48:51;;;;;;;;;;;;;;;0.93;34.37;101197.38;1810258;77;20137;-63
2021/03/11 10:51:20;;;;;;;;;;;;;;;1.09;34.91;101207.43;1840602;77;20240;-64
2021/03/11 10:53:48;;;;;;;;;;;;;;;1.31;34.38;101204.19;1834367;77;20280;-66
2021/03/11 10:56:17;;;;;;;;;;;;;;;1.40;33.40;101195.45;1838100;77;21218;-67
2021/03/11 10:58:46;;;;;;;;;;;;;;;1.41;34.38;101198.42;1835529;77;20287;-66
2021/03/11 11:01:25;;;;;;;;;;;;;;;1.45;33.46;101201.14;1833340;77;20149;-67
2021/03/11 11:03:53;;;;;;;;;;;;;;;1.26;33.45;101204.59;1840422;77;20216;-67
2021/03/11 11:06:22;;;;;;;;;;;;;;;1.08;34.32;101198.33;1841535;77;20225;-66
2021/03/11 11:08:50;;;;;;;;;;;;;;;1.10;33.98;101201.65;1848378;76;21229;-66
2021/03/11 11:11:18;;;;;;;;;;;;;;;1.09;33.52;101192.91;1839204;77;20142;-67
2021/03/11 11:13:48;;;;;;;;;;;;;;;1.06;33.83;101191.86;1838852;77;20130;-67
2021/03/11 11:16:16;;;;;;;;;;;;;;;1.09;33.64;101189.41;1742157;81;20338;-66
2021/03/11 11:18:45;;;;;;;;;;;;;;;1.07;33.31;101194.83;1743284;81;20486;-67
2021/03/11 11:21:14;;;;;;;;;;;;;;;0.97;32.88;101204.06;1743938;80;21215;-67
2021/03/11 11:23:42;;;;;;;;;;;;;;;0.86;34.08;101185.19;1744992;81;20194;-66
2021/03/11 11:26:10;;;;;;;;;;;;;;;0.95;33.85;101207.80;1698602;81;20319;-66
2021/03/11 11:28:38;;;;;;;;;;;;;;;1.02;32.87;101195.23;1694829;83;20236;-66
2021/03/11 11:31:06;;;;;;;;;;;;;;;1.09;32.78;101191.58;1699964;83;20338;-67
2021/03/11 11:33:36;;;;;;;;;;;;;;;1.09;32.04;101185.45;1709547;78;21228;-68
2021/03/11 11:36:04;;;;;;;;;;;;;;;0.98;33.07;101177.16;1779772;79;20329;-66
2021/03/11 11:38:32;;;;;;;;;;;;;;;1.08;33.25;101189.91;1790302;78;20222;-66
2021/03/11 11:41:01;;;;;;;;;;;;;;;1.22;33.34;101180.73;1784552;79;20246;-67
2021/03/11 11:43:30;;;;;;;;;;;;;;;1.37;33.13;101179.37;1785938;79;20174;-67
2021/03/11 11:45:58;;;;;;;;;;;;;;;1.44;32.64;101191.53;1786860;79;21805;-70
2021/03/11 11:48:25;;;;;;;;;;;;;;;1.37;32.94;101178.06;1662047;85;20758;-71
2021/03/11 11:50:55;;;;;;;;;;;;;;;1.32;32.92;101176.80;1664973;85;20271;-70
2021/03/11 11:53:22;;;;;;;;;;;;;;;1.18;33.44;101180.69;1673315;85;20285;-69
2021/03/11 11:55:50;;;;;;;;;;;;;;;1.02;33.76;101176.75;1608574;88;20263;-69
2021/03/11 11:58:26;;;;;;;;;;;;;;;1.01;34.01;101168.47;1816569;77;20665;-70
2021/03/11 12:00:54;;;;;;;;;;;;;;;0.86;34.31;101166.70;1801922;79;20155;-69
2021/03/11 12:03:22;;;;;;;;;;;;;;;0.95;34.03;101174.30;1801480;79;21341;-69
2021/03/11 12:05:50;;;;;;;;;;;;;;;0.97;33.47;101167.09;1800046;79;20184;-69
2021/03/11 12:08:18;;;;;;;;;;;;;;;1.00;33.26;101162.86;1804361;79;20184;-69
2021/03/11 12:10:48;;;;;;;;;;;;;;;1.00;33.46;101160.69;1798716;79;20147;-70
2021/03/11 12:13:17;;;;;;;;;;;;;;;1.00;32.66;101161.54;1802956;79;20184;-69
2021/03/11 12:15:45;;;;;;;;;;;;;;;0.97;33.20;101155.22;1768765;79;21211;-69
2021/03/11 12:18:13;;;;;;;;;;;;;;;0.89;33.30;101155.05;1801723;79;20147;-68
2021/03/11 12:20:42;;;;;;;;;;;;;;;0.83;33.33;101150.31;1800912;79;20145;-69
2021/03/11 12:23:10;;;;;;;;;;;;;;;0.80;32.82;101154.55;1801892;79;20235;-68
2021/03/11 12:25:38;;;;;;;;;;;;;;;0.78;32.90;101153.83;1797530;79;20172;-70
2021/03/11 12:28:07;;;;;;;;;;;;;;;0.69;33.21;101149.72;1796723;79;21205;-69
2021/03/11 12:30:35;;;;;;;;;;;;;;;0.58;33.72;101151.63;1796603;79;20257;-70
2021/03/11 12:33:03;;;;;;;;;;;;;;;0.60;33.70;101155.78;1767115;79;20351;-68
2021/03/11 12:35:32;;;;;;;;;;;;;;;0.72;33.37;101151.23;1797455;79;20222;-69
2021/03/11 12:38:00;;;;;;;;;;;;;;;0.80;33.10;101149.27;1764084;79;20226;-69
2021/03/11 12:40:28;;;;;;;;;;;;;;;0.70;33.09;101147.91;1794135;79;21146;-69
2021/03/11 12:42:57;;;;;;;;;;;;;;;0.58;33.70;101141.08;1797584;79;20185;-69
2021/03/11 12:45:25;;;;;;;;;;;;;;;0.65;34.05;101152.77;1797600;79;20211;-69
2021/03/11 12:47:53;;;;;;;;;;;;;;;0.79;33.77;101148.41;1762300;79;20231;-69
2021/03/11 12:50:21;;;;;;;;;;;;;;;0.89;33.87;101140.52;1763547;79;20250;-70
2021/03/11 12:52:50;;;;;;;;;;;;;;;0.83;33.54;101147.17;1800066;79;22257;-68
2021/03/11 12:55:18;;;;;;;;;;;;;;;0.73;34.33;101150.27;1797674;79;20125;-69
2021/03/11 12:57:46;;;;;;;;;;;;;;;0.71;34.20;101152.22;1786507;79;20671;-69
2021/03/11 13:00:15;;;;;;;;;;;;;;;0.69;33.92;101143.13;1759052;79;21067;-70
2021/03/11 13:02:45;;;;;;;;;;;;;;;0.70;33.94;101143.45;1782980;79;20238;-70
2021/03/11 13:05:13;;;;;;;;;;;;;;;0.72;34.07;101143.81;1761599;79;21084;-69
2021/03/11 13:07:43;;;;;;;;;;;;;;;0.75;34.05;101148.81;1783296;79;20165;-69
2021/03/11 13:10:13;;;;;;;;;;;;;;;0.74;34.36;101147.14;1784058;79;20504;-69
2021/03/11 13:12:42;;;;;;;;;;;;;;;0.65;34.75;101147.49;1784378;79;20302;-69